sensor_id;sensor_type;location;lat;lon;timestamp;P1;durP1;ratioP1;P2;durP2;ratioP2
29712;SDS011;16623;53.632;10.016;2023-05-07T00:01:37;14.18;;;10.13;;
29712;SDS011;16623;53.632;10.016;2023-05-07T00:04:02;16.27;;;10.10;;
29712;SDS011;16623;53.632;10.016;2023-05-07T00:06:28;14.50;;;9.80;;
29712;SDS011;16623;53.632;10.016;2023-05-07T00:08:55;15.07;;;10.15;;
29712;SDS011;16623;53.632;10.016;2023-05-07T00:11:21;13.75;;;10.15;;
29712;SDS011;16623;53.632;10.016;2023-05-07T00:13:47;16.88;;;10.30;;
29712;SDS011;16623;53.632;10.016;2023-05-07T00:16:13;14.40;;;10.73;;
29712;SDS011;16623;53.632;10.016;2023-05-07T00:18:38;13.30;;;9.55;;
29712;SDS011;16623;53.632;10.016;2023-05-07T00:21:04;15.85;;;9.88;;
29712;SDS011;16623;53.632;10.016;2023-05-07T00:23:30;15.98;;;9.93;;
29712;SDS011;16623;53.632;10.016;2023-05-07T00:25:55;15.88;;;10.63;;
29712;SDS011;16623;53.632;10.016;2023-05-07T00:28:21;15.80;;;10.35;;
29712;SDS011;16623;53.632;10.016;2023-05-07T00:30:47;16.20;;;10.50;;
29712;SDS011;16623;53.632;10.016;2023-05-07T00:33:12;12.90;;;9.40;;
29712;SDS011;16623;53.632;10.016;2023-05-07T00:35:38;14.63;;;9.35;;
29712;SDS011;16623;53.632;10.016;2023-05-07T00:38:03;14.75;;;10.15;;
29712;SDS011;16623;53.632;10.016;2023-05-07T00:40:29;14.25;;;10.38;;
29712;SDS011;16623;53.632;10.016;2023-05-07T00:42:54;20.65;;;10.50;;
29712;SDS011;16623;53.632;10.016;2023-05-07T00:45:22;16.23;;;10.82;;
29712;SDS011;16623;53.632;10.016;2023-05-07T00:47:51;14.95;;;10.35;;
29712;SDS011;16623;53.632;10.016;2023-05-07T00:50:19;14.10;;;10.73;;
29712;SDS011;16623;53.632;10.016;2023-05-07T00:52:45;16.65;;;11.15;;
29712;SDS011;16623;53.632;10.016;2023-05-07T00:55:10;19.08;;;11.38;;
29712;SDS011;16623;53.632;10.016;2023-05-07T00:57:39;16.15;;;11.35;;
29712;SDS011;16623;53.632;10.016;2023-05-07T01:00:06;16.08;;;11.02;;
29712;SDS011;16623;53.632;10.016;2023-05-07T01:02:34;16.73;;;8.32;;
29712;SDS011;16623;53.632;10.016;2023-05-07T01:05:00;17.27;;;11.15;;
29712;SDS011;16623;53.632;10.016;2023-05-07T01:07:28;15.07;;;9.90;;
29712;SDS011;16623;53.632;10.016;2023-05-07T01:09:54;17.33;;;10.85;;
29712;SDS011;16623;53.632;10.016;2023-05-07T01:12:20;16.45;;;11.93;;
29712;SDS011;16623;53.632;10.016;2023-05-07T01:14:46;14.15;;;9.85;;
29712;SDS011;16623;53.632;10.016;2023-05-07T01:17:14;19.88;;;12.38;;
29712;SDS011;16623;53.632;10.016;2023-05-07T01:19:40;18.05;;;11.88;;
29712;SDS011;16623;53.632;10.016;2023-05-07T01:22:09;16.20;;;10.73;;
29712;SDS011;16623;53.632;10.016;2023-05-07T01:24:39;13.98;;;9.93;;
29712;SDS011;16623;53.632;10.016;2023-05-07T01:27:06;13.02;;;10.00;;
29712;SDS011;16623;53.632;10.016;2023-05-07T01:29:31;16.25;;;9.73;;
29712;SDS011;16623;53.632;10.016;2023-05-07T01:31:57;16.13;;;10.65;;
29712;SDS011;16623;53.632;10.016;2023-05-07T01:34:25;15.75;;;10.23;;
29712;SDS011;16623;53.632;10.016;2023-05-07T01:36:56;15.82;;;10.63;;
29712;SDS011;16623;53.632;10.016;2023-05-07T01:39:27;16.80;;;11.55;;
29712;SDS011;16623;53.632;10.016;2023-05-07T01:41:56;17.38;;;11.90;;
29712;SDS011;16623;53.632;10.016;2023-05-07T01:44:24;18.58;;;10.27;;
29712;SDS011;16623;53.632;10.016;2023-05-07T01:46:50;16.73;;;10.40;;
29712;SDS011;16623;53.632;10.016;2023-05-07T01:49:16;13.43;;;10.05;;
29712;SDS011;16623;53.632;10.016;2023-05-07T01:51:43;14.68;;;9.60;;
29712;SDS011;16623;53.632;10.016;2023-05-07T01:54:09;12.85;;;9.20;;
29712;SDS011;16623;53.632;10.016;2023-05-07T01:56:34;15.75;;;10.85;;
29712;SDS011;16623;53.632;10.016;2023-05-07T01:59:00;18.77;;;11.70;;
29712;SDS011;16623;53.632;10.016;2023-05-07T02:01:27;13.20;;;9.82;;
29712;SDS011;16623;53.632;10.016;2023-05-07T02:03:52;17.33;;;10.13;;
29712;SDS011;16623;53.632;10.016;2023-05-07T02:06:18;15.57;;;9.70;;
29712;SDS011;16623;53.632;10.016;2023-05-07T02:08:44;14.10;;;9.75;;
29712;SDS011;16623;53.632;10.016;2023-05-07T02:11:11;12.70;;;8.73;;
29712;SDS011;16623;53.632;10.016;2023-05-07T02:13:36;12.38;;;9.05;;
29712;SDS011;16623;53.632;10.016;2023-05-07T02:16:02;16.52;;;9.88;;
29712;SDS011;16623;53.632;10.016;2023-05-07T02:18:28;13.10;;;7.93;;
29712;SDS011;16623;53.632;10.016;2023-05-07T02:20:53;14.50;;;9.02;;
29712;SDS011;16623;53.632;10.016;2023-05-07T02:23:19;13.93;;;9.98;;
29712;SDS011;16623;53.632;10.016;2023-05-07T02:25:44;11.82;;;8.25;;
29712;SDS011;16623;53.632;10.016;2023-05-07T02:28:10;14.77;;;9.27;;
29712;SDS011;16623;53.632;10.016;2023-05-07T02:30:42;14.35;;;8.82;;
29712;SDS011;16623;53.632;10.016;2023-05-07T02:33:08;14.52;;;9.30;;
29712;SDS011;16623;53.632;10.016;2023-05-07T02:35:33;14.02;;;9.82;;
29712;SDS011;16623;53.632;10.016;2023-05-07T02:37:59;52.83;;;8.77;;
29712;SDS011;16623;53.632;10.016;2023-05-07T02:40:25;13.88;;;9.57;;
29712;SDS011;16623;53.632;10.016;2023-05-07T02:42:50;13.32;;;8.75;;
29712;SDS011;16623;53.632;10.016;2023-05-07T02:45:16;16.45;;;10.40;;
29712;SDS011;16623;53.632;10.016;2023-05-07T02:47:41;14.50;;;9.75;;
29712;SDS011;16623;53.632;10.016;2023-05-07T02:50:07;15.93;;;8.60;;
29712;SDS011;16623;53.632;10.016;2023-05-07T02:52:32;15.38;;;10.57;;
29712;SDS011;16623;53.632;10.016;2023-05-07T02:54:58;11.50;;;8.68;;
29712;SDS011;16623;53.632;10.016;2023-05-07T02:57:23;14.00;;;9.48;;
29712;SDS011;16623;53.632;10.016;2023-05-07T02:59:49;19.65;;;10.18;;
29712;SDS011;16623;53.632;10.016;2023-05-07T03:02:15;15.00;;;9.20;;
29712;SDS011;16623;53.632;10.016;2023-05-07T03:04:41;16.88;;;9.98;;
29712;SDS011;16623;53.632;10.016;2023-05-07T03:07:06;15.43;;;10.57;;
29712;SDS011;16623;53.632;10.016;2023-05-07T03:09:32;14.00;;;9.40;;
29712;SDS011;16623;53.632;10.016;2023-05-07T03:11:57;17.23;;;10.25;;
29712;SDS011;16623;53.632;10.016;2023-05-07T03:14:23;15.27;;;10.20;;
29712;SDS011;16623;53.632;10.016;2023-05-07T03:16:49;17.50;;;10.18;;
29712;SDS011;16623;53.632;10.016;2023-05-07T03:19:15;17.17;;;9.77;;
29712;SDS011;16623;53.632;10.016;2023-05-07T03:21:40;12.77;;;9.65;;
29712;SDS011;16623;53.632;10.016;2023-05-07T03:24:06;15.32;;;9.98;;
29712;SDS011;16623;53.632;10.016;2023-05-07T03:26:32;14.98;;;10.18;;
29712;SDS011;16623;53.632;10.016;2023-05-07T03:28:57;15.73;;;10.32;;
29712;SDS011;16623;53.632;10.016;2023-05-07T03:31:23;14.73;;;10.20;;
29712;SDS011;16623;53.632;10.016;2023-05-07T03:33:50;14.07;;;8.43;;
29712;SDS011;16623;53.632;10.016;2023-05-07T03:36:20;17.92;;;10.15;;
29712;SDS011;16623;53.632;10.016;2023-05-07T03:38:46;15.80;;;9.02;;
29712;SDS011;16623;53.632;10.016;2023-05-07T03:41:12;13.10;;;9.10;;
29712;SDS011;16623;53.632;10.016;2023-05-07T03:43:38;12.13;;;9.05;;
29712;SDS011;16623;53.632;10.016;2023-05-07T03:46:03;12.82;;;9.98;;
29712;SDS011;16623;53.632;10.016;2023-05-07T03:48:29;13.63;;;9.43;;
29712;SDS011;16623;53.632;10.016;2023-05-07T03:50:55;13.60;;;9.05;;
29712;SDS011;16623;53.632;10.016;2023-05-07T03:53:22;12.93;;;9.30;;
29712;SDS011;16623;53.632;10.016;2023-05-07T03:55:48;14.50;;;9.88;;
29712;SDS011;16623;53.632;10.016;2023-05-07T03:58:14;15.18;;;10.40;;
29712;SDS011;16623;53.632;10.016;2023-05-07T04:00:40;15.60;;;9.15;;
29712;SDS011;16623;53.632;10.016;2023-05-07T04:03:06;14.35;;;10.13;;
29712;SDS011;16623;53.632;10.016;2023-05-07T04:05:32;14.00;;;9.77;;
29712;SDS011;16623;53.632;10.016;2023-05-07T04:07:57;12.80;;;8.88;;
29712;SDS011;16623;53.632;10.016;2023-05-07T04:10:26;14.02;;;9.55;;
29712;SDS011;16623;53.632;10.016;2023-05-07T04:12:55;12.60;;;8.50;;
29712;SDS011;16623;53.632;10.016;2023-05-07T04:15:21;12.65;;;9.48;;
29712;SDS011;16623;53.632;10.016;2023-05-07T04:17:48;14.63;;;9.50;;
29712;SDS011;16623;53.632;10.016;2023-05-07T04:20:16;12.85;;;9.30;;
29712;SDS011;16623;53.632;10.016;2023-05-07T04:22:42;11.15;;;8.00;;
29712;SDS011;16623;53.632;10.016;2023-05-07T04:25:08;12.43;;;8.00;;
29712;SDS011;16623;53.632;10.016;2023-05-07T04:27:34;13.55;;;9.35;;
29712;SDS011;16623;53.632;10.016;2023-05-07T04:30:00;11.90;;;8.48;;
29712;SDS011;16623;53.632;10.016;2023-05-07T04:32:27;11.43;;;7.97;;
29712;SDS011;16623;53.632;10.016;2023-05-07T04:34:54;14.15;;;8.63;;
29712;SDS011;16623;53.632;10.016;2023-05-07T04:37:20;12.18;;;8.40;;
29712;SDS011;16623;53.632;10.016;2023-05-07T04:39:46;10.95;;;7.22;;
29712;SDS011;16623;53.632;10.016;2023-05-07T04:42:15;13.13;;;9.98;;
29712;SDS011;16623;53.632;10.016;2023-05-07T04:44:43;15.07;;;8.93;;
29712;SDS011;16623;53.632;10.016;2023-05-07T04:47:09;12.90;;;8.63;;
29712;SDS011;16623;53.632;10.016;2023-05-07T04:49:34;10.73;;;7.60;;
29712;SDS011;16623;53.632;10.016;2023-05-07T04:52:00;13.45;;;9.27;;
29712;SDS011;16623;53.632;10.016;2023-05-07T04:54:26;13.25;;;9.40;;
29712;SDS011;16623;53.632;10.016;2023-05-07T04:56:51;13.82;;;8.85;;
29712;SDS011;16623;53.632;10.016;2023-05-07T04:59:17;11.02;;;7.97;;
29712;SDS011;16623;53.632;10.016;2023-05-07T05:01:43;13.32;;;8.73;;
29712;SDS011;16623;53.632;10.016;2023-05-07T05:04:08;12.63;;;8.73;;
29712;SDS011;16623;53.632;10.016;2023-05-07T05:06:35;15.43;;;8.65;;
29712;SDS011;16623;53.632;10.016;2023-05-07T05:09:00;12.20;;;8.23;;
29712;SDS011;16623;53.632;10.016;2023-05-07T05:11:26;12.48;;;9.00;;
29712;SDS011;16623;53.632;10.016;2023-05-07T05:13:51;11.98;;;7.95;;
29712;SDS011;16623;53.632;10.016;2023-05-07T05:16:17;13.15;;;7.80;;
29712;SDS011;16623;53.632;10.016;2023-05-07T05:18:42;11.50;;;7.88;;
29712;SDS011;16623;53.632;10.016;2023-05-07T05:21:08;10.48;;;7.78;;
29712;SDS011;16623;53.632;10.016;2023-05-07T05:23:33;11.95;;;7.20;;
29712;SDS011;16623;53.632;10.016;2023-05-07T05:25:59;12.27;;;7.85;;
29712;SDS011;16623;53.632;10.016;2023-05-07T05:28:24;11.88;;;8.02;;
29712;SDS011;16623;53.632;10.016;2023-05-07T05:30:50;10.80;;;7.05;;
29712;SDS011;16623;53.632;10.016;2023-05-07T05:33:15;12.43;;;8.30;;
29712;SDS011;16623;53.632;10.016;2023-05-07T05:35:41;9.20;;;7.00;;
29712;SDS011;16623;53.632;10.016;2023-05-07T05:38:07;13.48;;;9.95;;
29712;SDS011;16623;53.632;10.016;2023-05-07T05:40:32;11.10;;;8.40;;
29712;SDS011;16623;53.632;10.016;2023-05-07T05:42:58;11.07;;;7.95;;
29712;SDS011;16623;53.632;10.016;2023-05-07T05:45:24;14.65;;;8.40;;
29712;SDS011;16623;53.632;10.016;2023-05-07T05:47:50;12.30;;;7.82;;
29712;SDS011;16623;53.632;10.016;2023-05-07T05:50:15;12.27;;;8.20;;
29712;SDS011;16623;53.632;10.016;2023-05-07T05:52:41;10.10;;;6.28;;
29712;SDS011;16623;53.632;10.016;2023-05-07T05:55:07;11.85;;;8.55;;
29712;SDS011;16623;53.632;10.016;2023-05-07T05:57:33;13.27;;;8.45;;
29712;SDS011;16623;53.632;10.016;2023-05-07T05:59:59;13.60;;;8.63;;
29712;SDS011;16623;53.632;10.016;2023-05-07T06:02:25;11.65;;;6.68;;
29712;SDS011;16623;53.632;10.016;2023-05-07T06:04:51;10.80;;;7.68;;
29712;SDS011;16623;53.632;10.016;2023-05-07T06:07:17;11.23;;;8.18;;
29712;SDS011;16623;53.632;10.016;2023-05-07T06:09:43;11.98;;;7.80;;
29712;SDS011;16623;53.632;10.016;2023-05-07T06:12:09;11.50;;;6.28;;
29712;SDS011;16623;53.632;10.016;2023-05-07T06:14:34;12.55;;;8.10;;
29712;SDS011;16623;53.632;10.016;2023-05-07T06:17:00;10.23;;;7.18;;
29712;SDS011;16623;53.632;10.016;2023-05-07T06:19:25;12.20;;;8.45;;
29712;SDS011;16623;53.632;10.016;2023-05-07T06:21:53;14.80;;;8.13;;
29712;SDS011;16623;53.632;10.016;2023-05-07T06:24:18;10.48;;;7.32;;
29712;SDS011;16623;53.632;10.016;2023-05-07T06:26:44;9.32;;;6.75;;
29712;SDS011;16623;53.632;10.016;2023-05-07T06:29:09;11.07;;;7.95;;
29712;SDS011;16623;53.632;10.016;2023-05-07T06:31:35;11.15;;;6.95;;
29712;SDS011;16623;53.632;10.016;2023-05-07T06:34:00;10.18;;;7.45;;
29712;SDS011;16623;53.632;10.016;2023-05-07T06:36:27;13.38;;;7.30;;
29712;SDS011;16623;53.632;10.016;2023-05-07T06:38:53;11.98;;;8.10;;
29712;SDS011;16623;53.632;10.016;2023-05-07T06:41:19;8.40;;;7.10;;
29712;SDS011;16623;53.632;10.016;2023-05-07T06:43:45;9.15;;;6.75;;
29712;SDS011;16623;53.632;10.016;2023-05-07T06:46:11;10.18;;;7.07;;
29712;SDS011;16623;53.632;10.016;2023-05-07T06:48:36;11.93;;;7.47;;
29712;SDS011;16623;53.632;10.016;2023-05-07T06:51:02;12.75;;;7.32;;
29712;SDS011;16623;53.632;10.016;2023-05-07T06:53:27;9.88;;;7.20;;
29712;SDS011;16623;53.632;10.016;2023-05-07T06:55:54;9.43;;;6.70;;
29712;SDS011;16623;53.632;10.016;2023-05-07T06:58:20;10.63;;;6.55;;
29712;SDS011;16623;53.632;10.016;2023-05-07T07:00:45;8.77;;;6.53;;
29712;SDS011;16623;53.632;10.016;2023-05-07T07:03:11;10.75;;;6.75;;
29712;SDS011;16623;53.632;10.016;2023-05-07T07:05:36;10.55;;;6.43;;
29712;SDS011;16623;53.632;10.016;2023-05-07T07:08:02;9.18;;;6.97;;
29712;SDS011;16623;53.632;10.016;2023-05-07T07:10:27;9.20;;;6.03;;
29712;SDS011;16623;53.632;10.016;2023-05-07T07:12:53;13.77;;;6.75;;
29712;SDS011;16623;53.632;10.016;2023-05-07T07:15:19;7.85;;;5.35;;
29712;SDS011;16623;53.632;10.016;2023-05-07T07:17:45;9.20;;;6.70;;
29712;SDS011;16623;53.632;10.016;2023-05-07T07:20:11;9.18;;;6.30;;
29712;SDS011;16623;53.632;10.016;2023-05-07T07:22:37;8.30;;;6.20;;
29712;SDS011;16623;53.632;10.016;2023-05-07T07:25:02;10.93;;;6.65;;
29712;SDS011;16623;53.632;10.016;2023-05-07T07:27:28;8.93;;;6.38;;
29712;SDS011;16623;53.632;10.016;2023-05-07T07:29:54;9.75;;;6.15;;
29712;SDS011;16623;53.632;10.016;2023-05-07T07:32:19;9.85;;;6.63;;
29712;SDS011;16623;53.632;10.016;2023-05-07T07:34:45;8.95;;;5.57;;
29712;SDS011;16623;53.632;10.016;2023-05-07T07:37:10;7.95;;;5.95;;
29712;SDS011;16623;53.632;10.016;2023-05-07T07:39:36;8.63;;;5.82;;
29712;SDS011;16623;53.632;10.016;2023-05-07T07:42:02;7.03;;;5.43;;
29712;SDS011;16623;53.632;10.016;2023-05-07T07:44:29;11.13;;;5.38;;
29712;SDS011;16623;53.632;10.016;2023-05-07T07:46:54;10.15;;;5.38;;
29712;SDS011;16623;53.632;10.016;2023-05-07T07:49:20;9.35;;;5.57;;
29712;SDS011;16623;53.632;10.016;2023-05-07T07:51:45;9.25;;;5.53;;
29712;SDS011;16623;53.632;10.016;2023-05-07T07:54:11;11.75;;;5.80;;
29712;SDS011;16623;53.632;10.016;2023-05-07T07:56:36;9.43;;;6.40;;
29712;SDS011;16623;53.632;10.016;2023-05-07T07:59:02;13.02;;;5.88;;
29712;SDS011;16623;53.632;10.016;2023-05-07T08:01:29;8.20;;;5.85;;
29712;SDS011;16623;53.632;10.016;2023-05-07T08:03:55;7.72;;;5.63;;
29712;SDS011;16623;53.632;10.016;2023-05-07T08:06:22;7.10;;;5.22;;
29712;SDS011;16623;53.632;10.016;2023-05-07T08:08:48;8.88;;;5.90;;
29712;SDS011;16623;53.632;10.016;2023-05-07T08:11:14;8.40;;;5.45;;
29712;SDS011;16623;53.632;10.016;2023-05-07T08:13:39;7.72;;;5.10;;
29712;SDS011;16623;53.632;10.016;2023-05-07T08:16:05;8.15;;;5.63;;
29712;SDS011;16623;53.632;10.016;2023-05-07T08:18:31;8.00;;;5.28;;
29712;SDS011;16623;53.632;10.016;2023-05-07T08:20:57;7.95;;;5.85;;
29712;SDS011;16623;53.632;10.016;2023-05-07T08:23:22;8.15;;;5.50;;
29712;SDS011;16623;53.632;10.016;2023-05-07T08:25:48;11.23;;;6.22;;
29712;SDS011;16623;53.632;10.016;2023-05-07T08:28:14;11.13;;;6.35;;
29712;SDS011;16623;53.632;10.016;2023-05-07T08:30:40;7.95;;;5.70;;
29712;SDS011;16623;53.632;10.016;2023-05-07T08:33:05;7.78;;;5.88;;
29712;SDS011;16623;53.632;10.016;2023-05-07T08:35:31;7.20;;;5.65;;
29712;SDS011;16623;53.632;10.016;2023-05-07T08:37:56;7.45;;;5.50;;
29712;SDS011;16623;53.632;10.016;2023-05-07T08:40:25;4.07;;;3.28;;
29712;SDS011;16623;53.632;10.016;2023-05-07T08:42:53;7.93;;;5.00;;
29712;SDS011;16623;53.632;10.016;2023-05-07T08:45:19;5.28;;;3.88;;
29712;SDS011;16623;53.632;10.016;2023-05-07T08:47:53;11.75;;;5.00;;
29712;SDS011;16623;53.632;10.016;2023-05-07T08:50:23;6.93;;;4.95;;
29712;SDS011;16623;53.632;10.016;2023-05-07T08:52:49;7.22;;;5.53;;
29712;SDS011;16623;53.632;10.016;2023-05-07T08:55:15;7.60;;;5.03;;
29712;SDS011;16623;53.632;10.016;2023-05-07T08:57:42;6.90;;;5.50;;
29712;SDS011;16623;53.632;10.016;2023-05-07T09:00:07;6.60;;;5.38;;
29712;SDS011;16623;53.632;10.016;2023-05-07T09:02:36;10.48;;;5.75;;
29712;SDS011;16623;53.632;10.016;2023-05-07T09:05:02;6.72;;;5.22;;
29712;SDS011;16623;53.632;10.016;2023-05-07T09:07:28;8.23;;;5.10;;
29712;SDS011;16623;53.632;10.016;2023-05-07T09:09:56;6.68;;;4.80;;
29712;SDS011;16623;53.632;10.016;2023-05-07T09:12:25;6.90;;;4.82;;
29712;SDS011;16623;53.632;10.016;2023-05-07T09:14:53;6.75;;;5.07;;
29712;SDS011;16623;53.632;10.016;2023-05-07T09:17:19;7.38;;;5.30;;
29712;SDS011;16623;53.632;10.016;2023-05-07T09:19:45;7.75;;;5.45;;
29712;SDS011;16623;53.632;10.016;2023-05-07T09:22:11;7.88;;;5.30;;
29712;SDS011;16623;53.632;10.016;2023-05-07T09:24:37;7.85;;;5.40;;
29712;SDS011;16623;53.632;10.016;2023-05-07T09:27:06;6.00;;;4.95;;
29712;SDS011;16623;53.632;10.016;2023-05-07T09:29:33;6.97;;;4.15;;
29712;SDS011;16623;53.632;10.016;2023-05-07T09:32:03;9.07;;;4.22;;
29712;SDS011;16623;53.632;10.016;2023-05-07T09:34:29;11.52;;;4.60;;
29712;SDS011;16623;53.632;10.016;2023-05-07T09:36:55;6.45;;;4.68;;
29712;SDS011;16623;53.632;10.016;2023-05-07T09:39:23;5.85;;;4.28;;
29712;SDS011;16623;53.632;10.016;2023-05-07T09:41:50;5.72;;;4.00;;
29712;SDS011;16623;53.632;10.016;2023-05-07T09:44:19;6.03;;;4.47;;
29712;SDS011;16623;53.632;10.016;2023-05-07T09:46:45;6.15;;;4.25;;
29712;SDS011;16623;53.632;10.016;2023-05-07T09:49:22;8.10;;;4.15;;
29712;SDS011;16623;53.632;10.016;2023-05-07T09:51:49;6.45;;;4.32;;
29712;SDS011;16623;53.632;10.016;2023-05-07T09:54:16;5.65;;;3.30;;
29712;SDS011;16623;53.632;10.016;2023-05-07T09:56:43;6.10;;;4.25;;
29712;SDS011;16623;53.632;10.016;2023-05-07T09:59:13;6.20;;;3.83;;
29712;SDS011;16623;53.632;10.016;2023-05-07T10:01:40;9.63;;;4.85;;
29712;SDS011;16623;53.632;10.016;2023-05-07T10:04:07;5.38;;;3.85;;
29712;SDS011;16623;53.632;10.016;2023-05-07T10:06:34;5.60;;;4.57;;
29712;SDS011;16623;53.632;10.016;2023-05-07T10:09:00;7.15;;;4.63;;
29712;SDS011;16623;53.632;10.016;2023-05-07T10:11:26;7.07;;;4.22;;
29712;SDS011;16623;53.632;10.016;2023-05-07T10:13:53;5.07;;;4.10;;
29712;SDS011;16623;53.632;10.016;2023-05-07T10:16:19;6.50;;;4.00;;
29712;SDS011;16623;53.632;10.016;2023-05-07T10:18:47;4.53;;;3.70;;
29712;SDS011;16623;53.632;10.016;2023-05-07T10:21:21;7.20;;;4.38;;
29712;SDS011;16623;53.632;10.016;2023-05-07T10:23:53;6.82;;;4.13;;
29712;SDS011;16623;53.632;10.016;2023-05-07T10:26:50;5.70;;;3.30;;
29712;SDS011;16623;53.632;10.016;2023-05-07T10:34:21;3.25;;;2.67;;
29712;SDS011;16623;53.632;10.016;2023-05-07T10:36:51;7.22;;;4.07;;
29712;SDS011;16623;53.632;10.016;2023-05-07T10:39:17;6.78;;;4.32;;
29712;SDS011;16623;53.632;10.016;2023-05-07T10:41:45;5.38;;;3.95;;
29712;SDS011;16623;53.632;10.016;2023-05-07T10:44:11;5.78;;;3.97;;
29712;SDS011;16623;53.632;10.016;2023-05-07T10:46:36;6.53;;;4.00;;
29712;SDS011;16623;53.632;10.016;2023-05-07T10:51:29;6.22;;;4.20;;
29712;SDS011;16623;53.632;10.016;2023-05-07T10:56:37;6.53;;;4.20;;
29712;SDS011;16623;53.632;10.016;2023-05-07T11:01:57;4.80;;;3.65;;
29712;SDS011;16623;53.632;10.016;2023-05-07T11:04:29;4.13;;;3.58;;
29712;SDS011;16623;53.632;10.016;2023-05-07T11:15:02;5.88;;;3.67;;
29712;SDS011;16623;53.632;10.016;2023-05-07T11:17:30;6.55;;;3.63;;
29712;SDS011;16623;53.632;10.016;2023-05-07T11:19:59;5.95;;;4.10;;
29712;SDS011;16623;53.632;10.016;2023-05-07T11:25:05;6.13;;;3.67;;
29712;SDS011;16623;53.632;10.016;2023-05-07T11:27:31;5.25;;;3.38;;
29712;SDS011;16623;53.632;10.016;2023-05-07T11:29:58;3.80;;;3.10;;
29712;SDS011;16623;53.632;10.016;2023-05-07T11:32:27;4.25;;;2.95;;
29712;SDS011;16623;53.632;10.016;2023-05-07T11:34:54;4.80;;;3.33;;
29712;SDS011;16623;53.632;10.016;2023-05-07T11:37:21;4.60;;;3.33;;
29712;SDS011;16623;53.632;10.016;2023-05-07T11:39:47;5.45;;;3.17;;
29712;SDS011;16623;53.632;10.016;2023-05-07T11:42:25;3.90;;;2.63;;
29712;SDS011;16623;53.632;10.016;2023-05-07T11:44:54;4.30;;;2.95;;
29712;SDS011;16623;53.632;10.016;2023-05-07T11:47:20;3.40;;;2.80;;
29712;SDS011;16623;53.632;10.016;2023-05-07T11:49:47;3.83;;;2.50;;
29712;SDS011;16623;53.632;10.016;2023-05-07T11:52:14;3.20;;;2.45;;
29712;SDS011;16623;53.632;10.016;2023-05-07T11:54:40;9.57;;;2.92;;
29712;SDS011;16623;53.632;10.016;2023-05-07T11:57:05;5.43;;;2.75;;
29712;SDS011;16623;53.632;10.016;2023-05-07T11:59:38;3.83;;;3.42;;
29712;SDS011;16623;53.632;10.016;2023-05-07T12:02:06;3.13;;;2.47;;
29712;SDS011;16623;53.632;10.016;2023-05-07T12:04:35;3.90;;;2.85;;
29712;SDS011;16623;53.632;10.016;2023-05-07T12:07:02;4.10;;;2.80;;
29712;SDS011;16623;53.632;10.016;2023-05-07T12:09:28;3.45;;;2.80;;
29712;SDS011;16623;53.632;10.016;2023-05-07T12:11:54;3.03;;;2.72;;
29712;SDS011;16623;53.632;10.016;2023-05-07T12:14:21;6.05;;;3.20;;
29712;SDS011;16623;53.632;10.016;2023-05-07T12:16:46;4.03;;;2.78;;
29712;SDS011;16623;53.632;10.016;2023-05-07T12:19:12;3.45;;;2.80;;
29712;SDS011;16623;53.632;10.016;2023-05-07T12:21:38;4.53;;;2.67;;
29712;SDS011;16623;53.632;10.016;2023-05-07T12:24:05;2.85;;;2.08;;
29712;SDS011;16623;53.632;10.016;2023-05-07T12:26:30;3.72;;;2.85;;
29712;SDS011;16623;53.632;10.016;2023-05-07T12:28:59;4.28;;;2.33;;
29712;SDS011;16623;53.632;10.016;2023-05-07T12:31:28;2.80;;;2.45;;
29712;SDS011;16623;53.632;10.016;2023-05-07T12:33:53;3.40;;;2.42;;
29712;SDS011;16623;53.632;10.016;2023-05-07T12:36:19;3.10;;;2.40;;
29712;SDS011;16623;53.632;10.016;2023-05-07T12:38:46;6.07;;;2.58;;
29712;SDS011;16623;53.632;10.016;2023-05-07T12:41:15;3.70;;;2.53;;
29712;SDS011;16623;53.632;10.016;2023-05-07T12:43:45;3.65;;;1.88;;
29712;SDS011;16623;53.632;10.016;2023-05-07T12:46:11;3.63;;;2.13;;
29712;SDS011;16623;53.632;10.016;2023-05-07T12:48:44;2.22;;;1.75;;
29712;SDS011;16623;53.632;10.016;2023-05-07T12:51:12;2.67;;;2.20;;
29712;SDS011;16623;53.632;10.016;2023-05-07T12:53:41;3.17;;;1.65;;
29712;SDS011;16623;53.632;10.016;2023-05-07T12:56:08;5.10;;;1.95;;
29712;SDS011;16623;53.632;10.016;2023-05-07T12:58:34;4.05;;;2.63;;
29712;SDS011;16623;53.632;10.016;2023-05-07T13:01:01;3.65;;;1.98;;
29712;SDS011;16623;53.632;10.016;2023-05-07T13:03:31;3.15;;;2.13;;
29712;SDS011;16623;53.632;10.016;2023-05-07T13:06:01;7.05;;;1.80;;
29712;SDS011;16623;53.632;10.016;2023-05-07T13:08:38;2.35;;;1.80;;
29712;SDS011;16623;53.632;10.016;2023-05-07T13:11:06;9.65;;;2.70;;
29712;SDS011;16623;53.632;10.016;2023-05-07T13:13:34;4.40;;;2.38;;
29712;SDS011;16623;53.632;10.016;2023-05-07T13:16:01;4.70;;;2.00;;
29712;SDS011;16623;53.632;10.016;2023-05-07T13:18:29;2.28;;;1.95;;
29712;SDS011;16623;53.632;10.016;2023-05-07T13:20:55;4.68;;;2.20;;
29712;SDS011;16623;53.632;10.016;2023-05-07T13:23:21;2.67;;;1.88;;
29712;SDS011;16623;53.632;10.016;2023-05-07T13:25:47;2.97;;;2.00;;
29712;SDS011;16623;53.632;10.016;2023-05-07T13:28:14;7.20;;;2.25;;
29712;SDS011;16623;53.632;10.016;2023-05-07T13:30:39;2.00;;;1.80;;
29712;SDS011;16623;53.632;10.016;2023-05-07T13:33:05;6.78;;;2.15;;
29712;SDS011;16623;53.632;10.016;2023-05-07T13:35:31;3.35;;;2.10;;
29712;SDS011;16623;53.632;10.016;2023-05-07T13:37:57;2.70;;;1.98;;
29712;SDS011;16623;53.632;10.016;2023-05-07T13:40:23;2.53;;;1.77;;
29712;SDS011;16623;53.632;10.016;2023-05-07T13:42:49;2.33;;;1.80;;
29712;SDS011;16623;53.632;10.016;2023-05-07T13:45:15;3.88;;;1.90;;
29712;SDS011;16623;53.632;10.016;2023-05-07T13:47:41;1.73;;;1.63;;
29712;SDS011;16623;53.632;10.016;2023-05-07T13:50:08;2.65;;;1.80;;
29712;SDS011;16623;53.632;10.016;2023-05-07T13:52:34;2.25;;;2.03;;
29712;SDS011;16623;53.632;10.016;2023-05-07T13:55:00;6.90;;;1.92;;
29712;SDS011;16623;53.632;10.016;2023-05-07T13:57:25;2.40;;;1.92;;
29712;SDS011;16623;53.632;10.016;2023-05-07T13:59:51;3.20;;;1.70;;
29712;SDS011;16623;53.632;10.016;2023-05-07T14:02:16;2.72;;;1.55;;
29712;SDS011;16623;53.632;10.016;2023-05-07T14:04:42;2.53;;;1.52;;
29712;SDS011;16623;53.632;10.016;2023-05-07T14:07:07;3.05;;;1.70;;
29712;SDS011;16623;53.632;10.016;2023-05-07T14:09:33;2.08;;;1.40;;
29712;SDS011;16623;53.632;10.016;2023-05-07T14:11:59;3.03;;;1.60;;
29712;SDS011;16623;53.632;10.016;2023-05-07T14:14:25;3.22;;;1.45;;
29712;SDS011;16623;53.632;10.016;2023-05-07T14:16:50;5.82;;;2.08;;
29712;SDS011;16623;53.632;10.016;2023-05-07T14:19:16;3.83;;;1.63;;
29712;SDS011;16623;53.632;10.016;2023-05-07T14:21:41;3.08;;;1.55;;
29712;SDS011;16623;53.632;10.016;2023-05-07T14:24:07;2.35;;;1.50;;
29712;SDS011;16623;53.632;10.016;2023-05-07T14:26:36;1.88;;;1.50;;
29712;SDS011;16623;53.632;10.016;2023-05-07T14:29:02;2.35;;;1.60;;
29712;SDS011;16623;53.632;10.016;2023-05-07T14:31:28;2.83;;;2.15;;
29712;SDS011;16623;53.632;10.016;2023-05-07T14:33:53;3.60;;;1.45;;
29712;SDS011;16623;53.632;10.016;2023-05-07T14:36:19;2.55;;;2.10;;
29712;SDS011;16623;53.632;10.016;2023-05-07T14:38:46;2.53;;;1.73;;
29712;SDS011;16623;53.632;10.016;2023-05-07T14:41:12;2.15;;;1.70;;
29712;SDS011;16623;53.632;10.016;2023-05-07T14:43:37;3.05;;;1.58;;
29712;SDS011;16623;53.632;10.016;2023-05-07T14:46:03;1.90;;;1.60;;